sensor_id;sensor_type;location;lat;lon;timestamp;pressure;altitude;pressure_sealevel;temperature;humidity
55576;BME280;41437;45.478;9.116;2023-03-03T00:00:11;99865.25;;;6.69;100.00
55576;BME280;41437;45.478;9.116;2023-03-03T00:03:15;99884.84;;;6.84;100.00
55576;BME280;41437;45.478;9.116;2023-03-03T00:06:18;99883.16;;;6.95;100.00
55576;BME280;41437;45.478;9.116;2023-03-03T00:09:21;99881.88;;;6.97;100.00
55576;BME280;41437;45.478;9.116;2023-03-03T00:12:26;99874.38;;;6.93;100.00
55576;BME280;41437;45.478;9.116;2023-03-03T00:15:29;99879.94;;;6.86;100.00
55576;BME280;41437;45.478;9.116;2023-03-03T00:18:33;99872.19;;;6.71;100.00
55576;BME280;41437;45.478;9.116;2023-03-03T00:21:40;99883.84;;;6.67;100.00
55576;BME280;41437;45.478;9.116;2023-03-03T00:24:46;99875.63;;;6.67;100.00
55576;BME280;41437;45.478;9.116;2023-03-03T00:27:48;99875.63;;;6.67;100.00
55576;BME280;41437;45.478;9.116;2023-03-03T00:30:51;99872.06;;;6.66;100.00
55576;BME280;41437;45.478;9.116;2023-03-03T00:33:54;99867.63;;;6.65;100.00
55576;BME280;41437;45.478;9.116;2023-03-03T00:36:57;99876.69;;;6.66;100.00
55576;BME280;41437;45.478;9.116;2023-03-03T00:40:17;99868.72;;;6.64;100.00
55576;BME280;41437;45.478;9.116;2023-03-03T00:43:22;99870.91;;;6.44;100.00
55576;BME280;41437;45.478;9.116;2023-03-03T00:46:23;99862.94;;;6.42;100.00
55576;BME280;41437;45.478;9.116;2023-03-03T00:49:26;99859.88;;;6.50;100.00
55576;BME280;41437;45.478;9.116;2023-03-03T00:52:28;99863.56;;;6.56;100.00
55576;BME280;41437;45.478;9.116;2023-03-03T00:55:32;99860.75;;;6.63;100.00
55576;BME280;41437;45.478;9.116;2023-03-03T00:58:34;99860.88;;;6.68;100.00
55576;BME280;41437;45.478;9.116;2023-03-03T01:01:35;99860.41;;;6.71;100.00
55576;BME280;41437;45.478;9.116;2023-03-03T01:04:37;99862.28;;;6.70;100.00
55576;BME280;41437;45.478;9.116;2023-03-03T01:07:39;99851.81;;;6.67;100.00
55576;BME280;41437;45.478;9.116;2023-03-03T01:10:45;99851.91;;;6.61;100.00
55576;BME280;41437;45.478;9.116;2023-03-03T01:13:51;99849.06;;;6.55;100.00
55576;BME280;41437;45.478;9.116;2023-03-03T01:16:53;99860.63;;;6.58;100.00
55576;BME280;41437;45.478;9.116;2023-03-03T01:19:54;99852.16;;;6.59;100.00
55576;BME280;41437;45.478;9.116;2023-03-03T01:22:56;99849.28;;;6.54;100.00
55576;BME280;41437;45.478;9.116;2023-03-03T01:26:02;99845.22;;;6.57;100.00
55576;BME280;41437;45.478;9.116;2023-03-03T01:29:04;99845.56;;;6.48;100.00
55576;BME280;41437;45.478;9.116;2023-03-03T01:32:05;99824.38;;;6.44;100.00
55576;BME280;41437;45.478;9.116;2023-03-03T01:35:07;99836.44;;;6.54;100.00
55576;BME280;41437;45.478;9.116;2023-03-03T01:38:09;99832.53;;;6.62;100.00
55576;BME280;41437;45.478;9.116;2023-03-03T01:41:12;99825.59;;;6.60;100.00
55576;BME280;41437;45.478;9.116;2023-03-03T01:44:14;99833.56;;;6.61;100.00
55576;BME280;41437;45.478;9.116;2023-03-03T01:47:16;99821.69;;;6.55;100.00
55576;BME280;41437;45.478;9.116;2023-03-03T01:50:30;99817.84;;;6.57;100.00
55576;BME280;41437;45.478;9.116;2023-03-03T01:53:36;99814.41;;;6.49;100.00
55576;BME280;41437;45.478;9.116;2023-03-03T01:56:41;99810.94;;;6.42;100.00
55576;BME280;41437;45.478;9.116;2023-03-03T01:59:48;99801.66;;;6.32;100.00
55576;BME280;41437;45.478;9.116;2023-03-03T02:02:51;99804.34;;;6.20;100.00
55576;BME280;41437;45.478;9.116;2023-03-03T02:05:56;99803.13;;;6.16;100.00
55576;BME280;41437;45.478;9.116;2023-03-03T02:09:03;99801.47;;;6.15;100.00
55576;BME280;41437;45.478;9.116;2023-03-03T02:12:11;99792.41;;;5.84;100.00
55576;BME280;41437;45.478;9.116;2023-03-03T02:15:16;99777.78;;;5.60;100.00
55576;BME280;41437;45.478;9.116;2023-03-03T02:18:18;99791.91;;;5.57;100.00
55576;BME280;41437;45.478;9.116;2023-03-03T02:21:21;99781.72;;;5.64;100.00
55576;BME280;41437;45.478;9.116;2023-03-03T02:24:29;99782.28;;;5.54;100.00
55576;BME280;41437;45.478;9.116;2023-03-03T02:27:35;99781.22;;;5.37;100.00
55576;BME280;41437;45.478;9.116;2023-03-03T02:30:38;99778.34;;;5.32;100.00
55576;BME280;41437;45.478;9.116;2023-03-03T02:33:40;99771.81;;;5.33;100.00
55576;BME280;41437;45.478;9.116;2023-03-03T02:36:42;99765.34;;;5.09;100.00
55576;BME280;41437;45.478;9.116;2023-03-03T02:39:44;99758.91;;;4.85;100.00
55576;BME280;41437;45.478;9.116;2023-03-03T02:42:47;99751.78;;;4.84;100.00
55576;BME280;41437;45.478;9.116;2023-03-03T02:45:52;99746.69;;;4.88;100.00
55576;BME280;41437;45.478;9.116;2023-03-03T02:48:56;99755.53;;;4.83;100.00
55576;BME280;41437;45.478;9.116;2023-03-03T02:51:59;99745.97;;;4.74;100.00
55576;BME280;41437;45.478;9.116;2023-03-03T02:55:00;99740.91;;;4.77;100.00
55576;BME280;41437;45.478;9.116;2023-03-03T02:58:03;99746.84;;;4.93;100.00
55576;BME280;41437;45.478;9.116;2023-03-03T03:01:05;99747.78;;;5.05;100.00
55576;BME280;41437;45.478;9.116;2023-03-03T03:04:09;99738.03;;;5.09;100.00
55576;BME280;41437;45.478;9.116;2023-03-03T03:07:11;99735.69;;;5.13;100.00
55576;BME280;41437;45.478;9.116;2023-03-03T03:10:12;99748.44;;;5.19;100.00
55576;BME280;41437;45.478;9.116;2023-03-03T03:13:15;99749.66;;;5.23;100.00
55576;BME280;41437;45.478;9.116;2023-03-03T03:16:17;99742.31;;;5.23;100.00
55576;BME280;41437;45.478;9.116;2023-03-03T03:19:19;99732.34;;;5.29;100.00
55576;BME280;41437;45.478;9.116;2023-03-03T03:22:20;99736.75;;;5.30;100.00
55576;BME280;41437;45.478;9.116;2023-03-03T03:25:22;99742.22;;;5.30;100.00
55576;BME280;41437;45.478;9.116;2023-03-03T03:28:25;99734.25;;;5.28;100.00
55576;BME280;41437;45.478;9.116;2023-03-03T03:31:29;99738.13;;;5.21;100.00
55576;BME280;41437;45.478;9.116;2023-03-03T03:34:31;99738.81;;;5.16;100.00
55576;BME280;41437;45.478;9.116;2023-03-03T03:37:32;99733.44;;;5.10;100.00
55576;BME280;41437;45.478;9.116;2023-03-03T03:40:34;99741.00;;;5.08;100.00
55576;BME280;41437;45.478;9.116;2023-03-03T03:43:37;99737.69;;;5.06;100.00
55576;BME280;41437;45.478;9.116;2023-03-03T03:46:38;99733.94;;;5.00;100.00
55576;BME280;41437;45.478;9.116;2023-03-03T03:49:40;99735.00;;;4.99;100.00
55576;BME280;41437;45.478;9.116;2023-03-03T03:52:41;99729.41;;;4.94;100.00
55576;BME280;41437;45.478;9.116;2023-03-03T03:55:44;99730.69;;;4.91;100.00
55576;BME280;41437;45.478;9.116;2023-03-03T03:58:46;99734.47;;;4.90;100.00
55576;BME280;41437;45.478;9.116;2023-03-03T04:01:48;99723.84;;;4.82;100.00
55576;BME280;41437;45.478;9.116;2023-03-03T04:04:55;99728.47;;;4.82;100.00
55576;BME280;41437;45.478;9.116;2023-03-03T04:07:56;99726.13;;;4.85;100.00
55576;BME280;41437;45.478;9.116;2023-03-03T04:10:58;99729.78;;;4.79;100.00
55576;BME280;41437;45.478;9.116;2023-03-03T04:14:00;99717.00;;;4.54;100.00
55576;BME280;41437;45.478;9.116;2023-03-03T04:17:02;99715.28;;;4.35;100.00
55576;BME280;41437;45.478;9.116;2023-03-03T04:20:05;99717.56;;;4.38;100.00
55576;BME280;41437;45.478;9.116;2023-03-03T04:23:07;99725.69;;;4.45;100.00
55576;BME280;41437;45.478;9.116;2023-03-03T04:26:14;99717.69;;;4.50;100.00
55576;BME280;41437;45.478;9.116;2023-03-03T04:29:17;99719.09;;;4.52;100.00
55576;BME280;41437;45.478;9.116;2023-03-03T04:32:19;99710.09;;;4.52;100.00
55576;BME280;41437;45.478;9.116;2023-03-03T04:35:20;99714.03;;;4.56;100.00
55576;BME280;41437;45.478;9.116;2023-03-03T04:38:22;99701.31;;;4.50;100.00
55576;BME280;41437;45.478;9.116;2023-03-03T04:41:23;99715.94;;;4.56;100.00
55576;BME280;41437;45.478;9.116;2023-03-03T04:44:27;99693.00;;;4.38;100.00
55576;BME280;41437;45.478;9.116;2023-03-03T04:47:28;99714.41;;;4.41;100.00
55576;BME280;41437;45.478;9.116;2023-03-03T04:50:30;99716.03;;;4.24;100.00
55576;BME280;41437;45.478;9.116;2023-03-03T04:53:31;99719.81;;;4.23;100.00
55576;BME280;41437;45.478;9.116;2023-03-03T04:56:33;99707.44;;;4.20;100.00
55576;BME280;41437;45.478;9.116;2023-03-03T04:59:36;99715.38;;;4.22;100.00
55576;BME280;41437;45.478;9.116;2023-03-03T05:02:37;99715.22;;;4.17;100.00
55576;BME280;41437;45.478;9.116;2023-03-03T05:05:40;99707.88;;;4.17;100.00
55576;BME280;41437;45.478;9.116;2023-03-03T05:08:42;99716.28;;;4.16;100.00
55576;BME280;41437;45.478;9.116;2023-03-03T05:11:43;99716.69;;;4.19;100.00
55576;BME280;41437;45.478;9.116;2023-03-03T05:14:46;99709.94;;;4.22;100.00
55576;BME280;41437;45.478;9.116;2023-03-03T05:17:48;99713.41;;;4.11;100.00
55576;BME280;41437;45.478;9.116;2023-03-03T05:20:53;99703.38;;;4.04;100.00
55576;BME280;41437;45.478;9.116;2023-03-03T05:23:54;99718.97;;;3.97;100.00
55576;BME280;41437;45.478;9.116;2023-03-03T05:26:56;99709.72;;;3.98;100.00
55576;BME280;41437;45.478;9.116;2023-03-03T05:29:59;99718.59;;;3.87;100.00
55576;BME280;41437;45.478;9.116;2023-03-03T05:33:00;99713.97;;;3.56;100.00
55576;BME280;41437;45.478;9.116;2023-03-03T05:36:02;99710.72;;;3.41;100.00
55576;BME280;41437;45.478;9.116;2023-03-03T05:39:04;99714.53;;;3.33;100.00
55576;BME280;41437;45.478;9.116;2023-03-03T05:42:05;99716.75;;;3.43;100.00
55576;BME280;41437;45.478;9.116;2023-03-03T05:45:09;99710.91;;;3.39;100.00
55576;BME280;41437;45.478;9.116;2023-03-03T05:48:11;99703.28;;;3.16;100.00
55576;BME280;41437;45.478;9.116;2023-03-03T05:51:13;99703.63;;;2.88;100.00
55576;BME280;41437;45.478;9.116;2023-03-03T05:54:14;99697.97;;;2.83;100.00
55576;BME280;41437;45.478;9.116;2023-03-03T05:57:16;99710.69;;;2.96;100.00
55576;BME280;41437;45.478;9.116;2023-03-03T06:00:20;99708.81;;;2.96;100.00
55576;BME280;41437;45.478;9.116;2023-03-03T06:03:21;99714.91;;;2.92;100.00
55576;BME280;41437;45.478;9.116;2023-03-03T06:06:23;99726.63;;;2.86;100.00
55576;BME280;41437;45.478;9.116;2023-03-03T06:09:24;99720.34;;;2.85;100.00
55576;BME280;41437;45.478;9.116;2023-03-03T06:12:26;99719.72;;;2.96;100.00
55576;BME280;41437;45.478;9.116;2023-03-03T06:15:29;99690.19;;;2.87;100.00
55576;BME280;41437;45.478;9.116;2023-03-03T06:18:31;99717.72;;;3.17;100.00
55576;BME280;41437;45.478;9.116;2023-03-03T06:21:35;99726.06;;;3.22;100.00
55576;BME280;41437;45.478;9.116;2023-03-03T06:24:36;99721.53;;;3.09;100.00
55576;BME280;41437;45.478;9.116;2023-03-03T06:27:38;99726.13;;;3.09;100.00
55576;BME280;41437;45.478;9.116;2023-03-03T06:30:41;99726.63;;;2.86;100.00
55576;BME280;41437;45.478;9.116;2023-03-03T06:33:42;99723.53;;;2.69;100.00
55576;BME280;41437;45.478;9.116;2023-03-03T06:36:44;99709.97;;;2.62;100.00
55576;BME280;41437;45.478;9.116;2023-03-03T06:39:45;99725.53;;;3.00;100.00
55576;BME280;41437;45.478;9.116;2023-03-03T06:42:47;99730.69;;;3.21;100.00
55576;BME280;41437;45.478;9.116;2023-03-03T06:45:50;99734.63;;;3.32;100.00
55576;BME280;41437;45.478;9.116;2023-03-03T06:48:52;99745.66;;;3.50;100.00
55576;BME280;41437;45.478;9.116;2023-03-03T06:51:54;99753.72;;;3.70;100.00
55576;BME280;41437;45.478;9.116;2023-03-03T06:55:01;99747.16;;;3.78;100.00
55576;BME280;41437;45.478;9.116;2023-03-03T06:58:12;99753.34;;;3.98;100.00
55576;BME280;41437;45.478;9.116;2023-03-03T07:01:16;99756.63;;;4.07;100.00
55576;BME280;41437;45.478;9.116;2023-03-03T07:04:26;99740.66;;;4.11;100.00
55576;BME280;41437;45.478;9.116;2023-03-03T07:07:29;99763.63;;;4.28;100.00
55576;BME280;41437;45.478;9.116;2023-03-03T07:10:31;99751.56;;;4.11;100.00
55576;BME280;41437;45.478;9.116;2023-03-03T07:13:33;99759.34;;;4.07;100.00
55576;BME280;41437;45.478;9.116;2023-03-03T07:16:36;99762.16;;;4.25;100.00
55576;BME280;41437;45.478;9.116;2023-03-03T07:19:37;99755.91;;;4.43;100.00
55576;BME280;41437;45.478;9.116;2023-03-03T07:22:41;99762.59;;;4.47;100.00
55576;BME280;41437;45.478;9.116;2023-03-03T07:25:42;99751.97;;;4.39;100.00
55576;BME280;41437;45.478;9.116;2023-03-03T07:28:52;99744.34;;;4.23;100.00
55576;BME280;41437;45.478;9.116;2023-03-03T07:31:56;99742.63;;;4.28;100.00
55576;BME280;41437;45.478;9.116;2023-03-03T07:34:58;99760.44;;;4.56;100.00
55576;BME280;41437;45.478;9.116;2023-03-03T07:38:00;99751.81;;;4.77;100.00
55576;BME280;41437;45.478;9.116;2023-03-03T07:41:03;99751.47;;;5.11;100.00
55576;BME280;41437;45.478;9.116;2023-03-03T07:44:12;99762.25;;;5.42;100.00
55576;BME280;41437;45.478;9.116;2023-03-03T07:47:22;99759.09;;;5.57;100.00
55576;BME280;41437;45.478;9.116;2023-03-03T07:50:24;99770.75;;;5.83;100.00
55576;BME280;41437;45.478;9.116;2023-03-03T07:53:28;99764.22;;;6.02;100.00
55576;BME280;41437;45.478;9.116;2023-03-03T07:56:34;99772.72;;;6.24;100.00
55576;BME280;41437;45.478;9.116;2023-03-03T07:59:37;99771.31;;;6.45;100.00
55576;BME280;41437;45.478;9.116;2023-03-03T08:02:47;99776.44;;;6.65;100.00
55576;BME280;41437;45.478;9.116;2023-03-03T08:05:54;99777.31;;;6.77;100.00
55576;BME280;41437;45.478;9.116;2023-03-03T08:08:56;99784.19;;;6.91;100.00
55576;BME280;41437;45.478;9.116;2023-03-03T08:12:18;99791.13;;;7.05;100.00
55576;BME280;41437;45.478;9.116;2023-03-03T08:15:24;99781.56;;;7.20;100.00
55576;BME280;41437;45.478;9.116;2023-03-03T08:18:29;99789.63;;;7.38;100.00
55576;BME280;41437;45.478;9.116;2023-03-03T08:21:34;99787.72;;;7.50;100.00
55576;BME280;41437;45.478;9.116;2023-03-03T08:24:36;99791.94;;;7.70;100.00
55576;BME280;41437;45.478;9.116;2023-03-03T08:27:38;99787.72;;;7.79;100.00
55576;BME280;41437;45.478;9.116;2023-03-03T08:30:40;99789.16;;;7.81;100.00
55576;BME280;41437;45.478;9.116;2023-03-03T08:33:44;99783.25;;;8.01;100.00
55576;BME280;41437;45.478;9.116;2023-03-03T08:36:47;99784.94;;;8.19;100.00
55576;BME280;41437;45.478;9.116;2023-03-03T08:39:49;99779.28;;;8.26;100.00
55576;BME280;41437;45.478;9.116;2023-03-03T08:42:50;99787.03;;;8.29;100.00
55576;BME280;41437;45.478;9.116;2023-03-03T08:45:57;99775.88;;;8.36;100.00
55576;BME280;41437;45.478;9.116;2023-03-03T08:49:03;99797.75;;;8.59;100.00
55576;BME280;41437;45.478;9.116;2023-03-03T08:52:04;99797.50;;;8.61;100.00
55576;BME280;41437;45.478;9.116;2023-03-03T08:55:06;99795.50;;;8.56;98.72
55576;BME280;41437;45.478;9.116;2023-03-03T08:58:08;99792.81;;;8.44;98.76
55576;BME280;41437;45.478;9.116;2023-03-03T09:01:10;99775.47;;;8.27;99.25
55576;BME280;41437;45.478;9.116;2023-03-03T09:04:13;99797.34;;;8.67;99.35
55576;BME280;41437;45.478;9.116;2023-03-03T09:07:14;99805.31;;;9.02;97.67
55576;BME280;41437;45.478;9.116;2023-03-03T09:10:18;99793.75;;;9.39;96.04
55576;BME280;41437;45.478;9.116;2023-03-03T09:13:21;99793.25;;;9.64;93.68
55576;BME280;41437;45.478;9.116;2023-03-03T09:16:23;99786.47;;;9.72;92.89
55576;BME280;41437;45.478;9.116;2023-03-03T09:19:28;99794.38;;;9.90;92.27
55576;BME280;41437;45.478;9.116;2023-03-03T09:22:35;99796.38;;;9.95;91.95
55576;BME280;41437;45.478;9.116;2023-03-03T09:25:38;99802.97;;;9.94;91.17
55576;BME280;41437;45.478;9.116;2023-03-03T09:28:40;99799.53;;;10.08;89.97
55576;BME280;41437;45.478;9.116;2023-03-03T09:31:44;99784.25;;;9.96;90.53
55576;BME280;41437;45.478;9.116;2023-03-03T09:34:47;99811.09;;;10.27;87.92
55576;BME280;41437;45.478;9.116;2023-03-03T09:37:50;99808.19;;;10.44;86.42
55576;BME280;41437;45.478;9.116;2023-03-03T09:41:05;99808.25;;;10.49;84.72
55576;BME280;41437;45.478;9.116;2023-03-03T09:44:29;99816.72;;;10.75;83.90
55576;BME280;41437;45.478;9.116;2023-03-03T09:47:43;99819.00;;;10.83;83.01
55576;BME280;41437;45.478;9.116;2023-03-03T09:50:59;99822.91;;;10.87;82.13
55576;BME280;41437;45.478;9.116;2023-03-03T09:54:16;99819.97;;;10.99;81.12
55576;BME280;41437;45.478;9.116;2023-03-03T09:57:24;99820.34;;;11.13;80.46
55576;BME280;41437;45.478;9.116;2023-03-03T10:00:41;99817.94;;;11.26;81.01
55576;BME280;41437;45.478;9.116;2023-03-03T10:04:07;99822.19;;;11.44;78.90
55576;BME280;41437;45.478;9.116;2023-03-03T10:07:34;99817.13;;;11.73;77.39
55576;BME280;41437;45.478;9.116;2023-03-03T10:10:48;99815.00;;;11.91;76.73
55576;BME280;41437;45.478;9.116;2023-03-03T10:17:36;99823.09;;;12.18;75.98
55576;BME280;41437;45.478;9.116;2023-03-03T10:20:46;99826.44;;;12.20;75.87
55576;BME280;41437;45.478;9.116;2023-03-03T10:24:01;99825.31;;;12.11;76.24
55576;BME280;41437;45.478;9.116;2023-03-03T10:27:30;99819.81;;;12.26;71.94
55576;BME280;41437;45.478;9.116;2023-03-03T10:30:44;99820.97;;;12.50;71.09
55576;BME280;41437;45.478;9.116;2023-03-03T10:33:52;99822.66;;;12.82;70.16
55576;BME280;41437;45.478;9.116;2023-03-03T10:37:02;99822.38;;;12.78;69.23
55576;BME280;41437;45.478;9.116;2023-03-03T10:40:21;99818.50;;;12.59;69.77
55576;BME280;41437;45.478;9.116;2023-03-03T10:43:48;99823.44;;;12.52;71.12
55576;BME280;41437;45.478;9.116;2023-03-03T10:47:01;99817.63;;;12.38;72.88
55576;BME280;41437;45.478;9.116;2023-03-03T10:50:16;99812.97;;;12.59;70.05
55576;BME280;41437;45.478;9.116;2023-03-03T10:53:26;99824.03;;;12.90;68.14
55576;BME280;41437;45.478;9.116;2023-03-03T10:56:39;99802.44;;;12.97;67.94
55576;BME280;41437;45.478;9.116;2023-03-03T11:00:00;99825.94;;;13.09;67.29
55576;BME280;41437;45.478;9.116;2023-03-03T11:03:32;99830.41;;;13.16;66.24
55576;BME280;41437;45.478;9.116;2023-03-03T11:06:41;99824.03;;;13.25;63.97
55576;BME280;41437;45.478;9.116;2023-03-03T11:09:57;99819.63;;;13.24;64.93
55576;BME280;41437;45.478;9.116;2023-03-03T11:13:13;99820.41;;;13.45;61.57
55576;BME280;41437;45.478;9.116;2023-03-03T11:16:33;99814.31;;;13.48;61.71
55576;BME280;41437;45.478;9.116;2023-03-03T11:19:52;99811.22;;;13.60;59.35
55576;BME280;41437;45.478;9.116;2023-03-03T11:23:01;99807.41;;;13.36;61.55
55576;BME280;41437;45.478;9.116;2023-03-03T11:26:12;99800.25;;;13.29;63.33
55576;BME280;41437;45.478;9.116;2023-03-03T11:29:31;99806.59;;;13.35;62.06
55576;BME280;41437;45.478;9.116;2023-03-03T11:32:42;99792.97;;;13.49;60.86
55576;BME280;41437;45.478;9.116;2023-03-03T11:35:54;99798.25;;;13.50;60.89
55576;BME280;41437;45.478;9.116;2023-03-03T11:39:01;99795.47;;;13.55;58.75
55576;BME280;41437;45.478;9.116;2023-03-03T11:42:12;99786.59;;;13.53;57.93
55576;BME280;41437;45.478;9.116;2023-03-03T11:45:19;99794.06;;;13.58;56.96
55576;BME280;41437;45.478;9.116;2023-03-03T11:48:29;99784.44;;;13.35;59.30
55576;BME280;41437;45.478;9.116;2023-03-03T11:51:40;99783.84;;;13.48;55.12
55576;BME280;41437;45.478;9.116;2023-03-03T11:54:49;99780.88;;;13.24;57.16
55576;BME280;41437;45.478;9.116;2023-03-03T11:57:57;99778.63;;;13.31;59.14
55576;BME280;41437;45.478;9.116;2023-03-03T12:01:08;99771.72;;;13.39;60.66
55576;BME280;41437;45.478;9.116;2023-03-03T12:04:18;99785.00;;;13.22;56.80
55576;BME280;41437;45.478;9.116;2023-03-03T12:07:27;99776.13;;;13.40;57.50
55576;BME280;41437;45.478;9.116;2023-03-03T12:10:35;99759.66;;;13.74;56.16
55576;BME280;41437;45.478;9.116;2023-03-03T12:13:49;99766.25;;;14.38;54.75
55576;BME280;41437;45.478;9.116;2023-03-03T12:16:57;99752.94;;;14.74;52.99
55576;BME280;41437;45.478;9.116;2023-03-03T12:20:04;99766.03;;;14.69;54.45
55576;BME280;41437;45.478;9.116;2023-03-03T12:23:20;99770.41;;;14.75;53.66
55576;BME280;41437;45.478;9.116;2023-03-03T12:26:31;99766.09;;;14.64;53.34
55576;BME280;41437;45.478;9.116;2023-03-03T12:29:40;99750.63;;;14.52;53.51
55576;BME280;41437;45.478;9.116;2023-03-03T12:33:14;99763.56;;;14.67;54.31
55576;BME280;41437;45.478;9.116;2023-03-03T12:36:28;99753.91;;;14.94;52.95
55576;BME280;41437;45.478;9.116;2023-03-03T12:39:44;99743.69;;;14.84;53.14
55576;BME280;41437;45.478;9.116;2023-03-03T12:42:57;99746.25;;;14.80;52.51
55576;BME280;41437;45.478;9.116;2023-03-03T12:46:05;99745.34;;;15.14;51.37
55576;BME280;41437;45.478;9.116;2023-03-03T12:49:09;99743.41;;;15.15;50.20
55576;BME280;41437;45.478;9.116;2023-03-03T12:52:19;99741.22;;;15.12;50.47
55576;BME280;41437;45.478;9.116;2023-03-03T12:55:35;99741.19;;;15.17;50.86
55576;BME280;41437;45.478;9.116;2023-03-03T12:58:48;99738.59;;;14.96;51.72
55576;BME280;41437;45.478;9.116;2023-03-03T13:02:03;99741.59;;;14.76;50.84
55576;BME280;41437;45.478;9.116;2023-03-03T13:05:19;99746.28;;;14.41;50.47
55576;BME280;41437;45.478;9.116;2023-03-03T13:08:32;99742.59;;;14.12;50.42
55576;BME280;41437;45.478;9.116;2023-03-03T13:11:59;99751.59;;;14.32;50.20
55576;BME280;41437;45.478;9.116;2023-03-03T13:15:12;99745.72;;;14.39;51.82
55576;BME280;41437;45.478;9.116;2023-03-03T13:18:24;99741.19;;;14.53;49.80
55576;BME280;41437;45.478;9.116;2023-03-03T13:21:32;99738.22;;;14.79;47.76
55576;BME280;41437;45.478;9.116;2023-03-03T13:24:44;99740.59;;;15.20;46.67
55576;BME280;41437;45.478;9.116;2023-03-03T13:27:58;99737.97;;;15.04;46.93
55576;BME280;41437;45.478;9.116;2023-03-03T13:31:05;99719.41;;;14.76;46.43
55576;BME280;41437;45.478;9.116;2023-03-03T13:34:16;99740.94;;;14.84;45.25
55576;BME280;41437;45.478;9.116;2023-03-03T13:37:26;99737.06;;;14.85;45.90
55576;BME280;41437;45.478;9.116;2023-03-03T13:40:37;99736.50;;;14.83;46.05
55576;BME280;41437;45.478;9.116;2023-03-03T13:43:45;99734.50;;;15.18;45.06
55576;BME280;41437;45.478;9.116;2023-03-03T13:46:59;99729.78;;;15.42;44.87
55576;BME280;41437;45.478;9.116;2023-03-03T13:50:13;99734.72;;;15.45;45.77
55576;BME280;41437;45.478;9.116;2023-03-03T13:53:31;99710.34;;;15.18;46.50
55576;BME280;41437;45.478;9.116;2023-03-03T14:00:11;99713.19;;;14.84;47.91
55576;BME280;41437;45.478;9.116;2023-03-03T14:03:24;99706.50;;;14.90;48.40
55576;BME280;41437;45.478;9.116;2023-03-03T14:06:29;99701.53;;;14.87;45.98
55576;BME280;41437;45.478;9.116;2023-03-03T14:09:42;99717.09;;;14.83;47.86
55576;BME280;41437;45.478;9.116;2023-03-03T14:12:50;99711.50;;;14.88;49.45
55576;BME280;41437;45.478;9.116;2023-03-03T14:15:57;99709.72;;;14.97;50.31
55576;BME280;41437;45.478;9.116;2023-03-03T14:19:08;99713.88;;;15.00;49.55
55576;BME280;41437;45.478;9.116;2023-03-03T14:22:17;99707.19;;;15.01;50.08
55576;BME280;41437;45.478;9.116;2023-03-03T14:25:26;99709.00;;;14.57;49.66
55576;BME280;41437;45.478;9.116;2023-03-03T14:28:49;99711.06;;;14.42;51.46
55576;BME280;41437;45.478;9.116;2023-03-03T14:31:52;99701.41;;;14.34;50.78
55576;BME280;41437;45.478;9.116;2023-03-03T14:34:57;99710.50;;;14.40;49.00
55576;BME280;41437;45.478;9.116;2023-03-03T14:38:01;99707.97;;;14.48;50.15
55576;BME280;41437;45.478;9.116;2023-03-03T14:41:12;99709.22;;;14.27;49.40
55576;BME280;41437;45.478;9.116;2023-03-03T14:44:24;99708.72;;;14.20;49.77
55576;BME280;41437;45.478;9.116;2023-03-03T14:47:28;99710.38;;;14.21;50.42
55576;BME280;41437;45.478;9.116;2023-03-03T14:50:33;99693.59;;;14.41;49.91
55576;BME280;41437;45.478;9.116;2023-03-03T14:53:37;99696.38;;;14.41;49.29
55576;BME280;41437;45.478;9.116;2023-03-03T14:56:55;99713.19;;;14.55;49.44
55576;BME280;41437;45.478;9.116;2023-03-03T14:59:59;99707.66;;;14.55;50.06
55576;BME280;41437;45.478;9.116;2023-03-03T15:03:17;99705.56;;;14.71;48.44
55576;BME280;41437;45.478;9.116;2023-03-03T15:06:33;99686.63;;;14.78;47.92
55576;BME280;41437;45.478;9.116;2023-03-03T15:09:37;99687.75;;;14.77;48.01
55576;BME280;41437;45.478;9.116;2023-03-03T15:12:41;99702.53;;;14.96;48.07
55576;BME280;41437;45.478;9.116;2023-03-03T15:15:48;99698.44;;;14.89;48.24
55576;BME280;41437;45.478;9.116;2023-03-03T15:19:15;99696.78;;;15.17;47.17
55576;BME280;41437;45.478;9.116;2023-03-03T15:22:36;99686.19;;;14.95;47.18
55576;BME280;41437;45.478;9.116;2023-03-03T15:25:51;99691.84;;;14.85;47.31
55576;BME280;41437;45.478;9.116;2023-03-03T15:29:03;99695.69;;;14.60;47.52
55576;BME280;41437;45.478;9.116;2023-03-03T15:32:14;99698.53;;;14.49;48.19
55576;BME280;41437;45.478;9.116;2023-03-03T15:35:42;99697.97;;;14.47;48.24
55576;BME280;41437;45.478;9.116;2023-03-03T15:38:54;99702.97;;;14.45;48.77
55576;BME280;41437;45.478;9.116;2023-03-03T15:42:03;99701.31;;;14.49;48.08
55576;BME280;41437;45.478;9.116;2023-03-03T15:45:18;99675.38;;;14.30;47.74
55576;BME280;41437;45.478;9.116;2023-03-03T15:48:41;99687.34;;;14.25;48.75
55576;BME280;41437;45.478;9.116;2023-03-03T15:51:49;99700.94;;;14.22;49.58
55576;BME280;41437;45.478;9.116;2023-03-03T15:55:06;99704.28;;;14.24;48.92
55576;BME280;41437;45.478;9.116;2023-03-03T15:58:35;99683.31;;;14.07;49.38
55576;BME280;41437;45.478;9.116;2023-03-03T16:01:48;99689.56;;;14.23;49.12
55576;BME280;41437;45.478;9.116;2023-03-03T16:04:55;99686.34;;;14.06;50.69
55576;BME280;41437;45.478;9.116;2023-03-03T16:08:03;99700.28;;;13.96;51.55
55576;BME280;41437;45.478;9.116;2023-03-03T16:11:13;99698.72;;;13.85;50.43
55576;BME280;41437;45.478;9.116;2023-03-03T16:14:33;99695.41;;;13.77;52.22
55576;BME280;41437;45.478;9.116;2023-03-03T16:17:42;99696.56;;;13.66;52.60
55576;BME280;41437;45.478;9.116;2023-03-03T16:20:57;99700.75;;;13.64;52.86
55576;BME280;41437;45.478;9.116;2023-03-03T16:24:10;99683.41;;;13.43;53.46
55576;BME280;41437;45.478;9.116;2023-03-03T16:27:19;99672.63;;;13.36;53.38
55576;BME280;41437;45.478;9.116;2023-03-03T16:30:32;99695.31;;;13.43;54.49
55576;BME280;41437;45.478;9.116;2023-03-03T16:33:40;99705.00;;;13.41;54.73
55576;BME280;41437;45.478;9.116;2023-03-03T16:36:53;99710.28;;;13.32;55.71